Time;durP1;ratioP1;P1;durP2;ratioP2;P2;SDS_P1;SDS_P2;PMS_P1;PMS_P2;Temp;Humidity;BMP_temperature;BMP_pressure;BME280_temperature;BME280_humidity;BME280_pressure;Samples;Min_cycle;Max_cycle;Signal;HPM_P1;HPM_P2
2022/08/10 00:02:46;;;;;;;0.90;0.85;;;22.50;58.50;;;;;;5032496;28;20053;-70
2022/08/10 00:05:13;;;;;;;1.17;0.90;;;;;;;;;;5032566;28;20063;-70
2022/08/10 00:07:40;;;;;;;1.17;1.00;;;21.90;63.90;;;;;;5033941;28;20132;-73
2022/08/10 00:10:07;;;;;;;0.85;0.80;;;21.80;56.30;;;;;;5051554;28;20540;-72
2022/08/10 00:12:33;;;;;;;1.00;0.90;;;21.40;63.60;;;;;;5050192;28;20071;-74
2022/08/10 00:15:00;;;;;;;0.95;0.90;;;22.10;63.80;;;;;;5050739;28;20053;-74
2022/08/10 00:17:27;;;;;;;0.88;0.85;;;;;;;;;;5047846;28;20399;-73
2022/08/10 00:19:55;;;;;;;2.42;1.00;;;22.10;63.80;;;;;;5034506;28;20417;-73
2022/08/10 00:22:22;;;;;;;1.08;0.82;;;22.10;63.80;;;;;;5032096;28;20136;-73
2022/08/10 00:24:49;;;;;;;1.00;0.90;;;;;;;;;;5038271;28;20128;-72
2022/08/10 00:27:16;;;;;;;0.80;0.80;;;22.10;64.00;;;;;;5039064;28;20063;-74
2022/08/10 00:29:43;;;;;;;1.05;0.95;;;21.40;63.60;;;;;;5036411;28;20048;-73
2022/08/10 00:32:10;;;;;;;1.00;0.90;;;;;;;;;;5051465;28;20063;-73
2022/08/10 00:34:37;;;;;;;1.00;0.90;;;21.60;63.50;;;;;;5051384;28;20120;-74
2022/08/10 00:37:05;;;;;;;1.10;1.00;;;21.60;56.30;;;;;;5040776;28;20062;-72
2022/08/10 00:39:32;;;;;;;1.00;0.90;;;;;;;;;;5033155;28;20041;-73
2022/08/10 00:41:58;;;;;;;2.03;0.80;;;21.00;63.10;;;;;;5048449;28;20057;-74
2022/08/10 00:44:25;;;;;;;1.08;0.90;;;;;;;;;;5047741;28;20049;-74
2022/08/10 00:46:52;;;;;;;1.00;0.93;;;21.20;64.00;;;;;;5042771;28;20053;-73
2022/08/10 00:49:19;;;;;;;0.93;0.90;;;21.70;63.80;;;;;;5031875;28;20409;-74
2022/08/10 00:51:46;;;;;;;1.00;1.00;;;21.50;62.70;;;;;;5045715;28;20057;-70
2022/08/10 00:54:14;;;;;;;1.02;0.93;;;21.60;64.10;;;;;;5050816;28;20063;-70
2022/08/10 00:56:41;;;;;;;0.80;0.80;;;;;;;;;;5044251;28;20059;-70
2022/08/10 00:59:08;;;;;;;0.77;0.77;;;;;;;;;;5049391;28;20136;-72
2022/08/10 01:01:36;;;;;;;0.85;0.85;;;;;;;;;;5062191;28;20476;-70
2022/08/10 01:04:03;;;;;;;0.80;0.80;;;22.00;58.40;;;;;;5051465;28;20482;-70
2022/08/10 01:06:31;;;;;;;0.90;0.90;;;21.60;56.30;;;;;;5040395;28;20068;-72
2022/08/10 01:09:01;;;;;;;0.98;0.90;;;21.60;56.30;;;;;;5045846;28;20136;-72
2022/08/10 01:11:32;;;;;;;0.70;0.70;;;21.40;63.70;;;;;;5031068;28;20056;-70
2022/08/10 01:14:03;;;;;;;0.95;0.80;;;21.30;58.60;;;;;;5036316;28;20059;-71
2022/08/10 01:16:34;;;;;;;0.85;0.85;;;21.50;63.90;;;;;;5045831;28;20054;-70
2022/08/10 01:19:21;;;;;;;1.00;0.90;;;21.40;56.30;;;;;;5037288;28;20041;-70
2022/08/10 01:22:07;;;;;;;1.15;1.00;;;21.30;63.80;;;;;;5050301;28;20128;-70
2022/08/10 01:24:47;;;;;;;0.80;0.80;;;21.70;63.80;;;;;;5050764;28;20169;-70
2022/08/10 01:27:21;;;;;;;0.80;0.80;;;21.20;64.10;;;;;;5036689;28;20410;-70
2022/08/10 01:29:53;;;;;;;1.10;1.00;;;21.00;63.30;;;;;;5031099;28;20504;-70
2022/08/10 01:32:26;;;;;;;0.77;0.77;;;21.20;64.20;;;;;;5030873;28;20053;-70
2022/08/10 01:34:56;;;;;;;1.02;1.00;;;21.40;63.60;;;;;;5030851;28;20063;-70
2022/08/10 01:37:24;;;;;;;0.98;0.90;;;21.60;56.40;;;;;;5038975;28;20053;-72
2022/08/10 01:39:54;;;;;;;1.00;0.90;;;21.20;63.50;;;;;;5067328;28;20143;-70
2022/08/10 01:42:21;;;;;;;1.10;0.98;;;21.30;63.60;;;;;;5049873;28;20128;-70
2022/08/10 01:44:50;;;;;;;1.00;0.90;;;21.50;56.30;;;;;;5047216;28;20128;-71
2022/08/10 01:50:04;;;;;;;0.90;0.90;;;21.50;63.60;;;;;;5050220;28;20041;-71
2022/08/10 01:52:31;;;;;;;1.35;1.10;;;21.90;64.10;;;;;;5049191;28;20696;-71
2022/08/10 01:54:58;;;;;;;0.95;0.90;;;21.40;60.00;;;;;;5050238;28;20469;-71
2022/08/10 01:57:25;;;;;;;1.67;0.90;;;21.10;58.30;;;;;;5039965;28;20575;-70
2022/08/10 01:59:53;;;;;;;1.13;1.02;;;21.00;56.00;;;;;;5031879;28;20486;-71
2022/08/10 02:02:20;;;;;;;0.90;0.90;;;21.70;59.40;;;;;;5030319;28;20049;-71
2022/08/10 02:04:47;;;;;;;0.98;0.88;;;21.40;63.80;;;;;;5040375;28;20057;-70
2022/08/10 02:07:17;;;;;;;0.93;0.90;;;21.40;59.90;;;;;;5051238;28;20512;-71
2022/08/10 02:09:47;;;;;;;1.10;1.00;;;21.30;63.50;;;;;;5053183;28;20052;-71
2022/08/10 02:12:15;;;;;;;1.10;0.90;;;21.30;63.90;;;;;;5035569;28;20120;-71
2022/08/10 02:14:42;;;;;;;0.80;0.80;;;21.30;63.70;;;;;;5034545;28;20064;-71
2022/08/10 02:17:11;;;;;;;0.80;0.80;;;21.40;63.90;;;;;;5043217;28;20051;-71
2022/08/10 02:19:39;;;;;;;1.00;0.90;;;21.40;58.70;;;;;;5055066;28;20049;-74
2022/08/10 02:22:07;;;;;;;0.88;0.88;;;21.40;56.20;;;;;;5054971;28;20060;-72
2022/08/10 02:24:34;;;;;;;1.00;0.90;;;22.20;64.10;;;;;;5054093;28;20061;-74
2022/08/10 02:27:01;;;;;;;1.25;1.00;;;21.40;56.20;;;;;;5043117;28;20049;-73
2022/08/10 02:29:28;;;;;;;0.88;0.82;;;21.60;64.40;;;;;;5037421;28;20497;-74
2022/08/10 02:31:55;;;;;;;0.95;0.88;;;;;;;;;;5053374;28;20072;-73
2022/08/10 02:34:23;;;;;;;0.90;0.90;;;21.50;63.70;;;;;;5054290;28;20111;-74
2022/08/10 02:36:50;;;;;;;0.90;0.90;;;21.80;62.10;;;;;;5048766;28;20224;-74
2022/08/10 02:39:17;;;;;;;1.08;0.90;;;21.50;56.20;;;;;;5035307;28;20144;-74
2022/08/10 02:41:46;;;;;;;1.00;0.90;;;21.50;64.00;;;;;;5049937;28;20047;-73
2022/08/10 02:44:17;;;;;;;1.58;0.90;;;21.40;56.20;;;;;;5053447;28;20059;-73
2022/08/10 02:46:46;;;;;;;1.00;0.90;;;21.40;56.20;;;;;;5048313;28;20094;-74
2022/08/10 02:49:20;;;;;;;1.30;1.08;;;21.80;64.30;;;;;;5043696;28;20425;-74
2022/08/10 02:51:50;;;;;;;1.37;1.00;;;21.40;64.10;;;;;;5064658;28;20049;-74
2022/08/10 02:54:21;;;;;;;2.15;1.00;;;21.40;56.20;;;;;;5033949;28;20059;-73
2022/08/10 02:56:51;;;;;;;1.25;1.05;;;21.40;56.20;;;;;;5040067;28;20048;-73
2022/08/10 02:59:22;;;;;;;0.85;0.82;;;21.30;59.20;;;;;;5068739;28;20486;-74
2022/08/10 03:01:49;;;;;;;0.90;0.90;;;21.60;64.70;;;;;;5053120;28;20132;-74
2022/08/10 03:04:17;;;;;;;0.90;0.90;;;20.40;63.60;;;;;;5053513;28;20098;-74
2022/08/10 03:06:45;;;;;;;0.90;0.90;;;21.30;58.10;;;;;;5041548;28;20044;-73
2022/08/10 03:09:13;;;;;;;1.35;0.90;;;21.40;56.30;;;;;;5069764;28;20132;-72
2022/08/10 03:11:40;;;;;;;0.85;0.85;;;21.50;63.80;;;;;;5040591;28;20059;-74
2022/08/10 03:14:07;;;;;;;1.00;0.90;;;21.00;64.00;;;;;;5034756;28;20072;-74
2022/08/10 03:16:35;;;;;;;1.33;0.90;;;;;;;;;;5048304;28;20049;-74
2022/08/10 03:19:04;;;;;;;0.95;0.90;;;21.60;64.00;;;;;;5053862;28;20041;-74
2022/08/10 03:21:30;;;;;;;1.05;1.00;;;21.30;64.10;;;;;;5069340;28;20128;-74
2022/08/10 03:23:58;;;;;;;1.10;1.00;;;;;;;;;;5052995;28;20079;-74
2022/08/10 03:26:26;;;;;;;1.20;1.00;;;20.40;56.70;;;;;;5045433;28;20050;-74
2022/08/10 03:28:53;;;;;;;1.00;0.93;;;;;;;;;;5052662;28;20060;-73
2022/08/10 03:31:19;;;;;;;1.10;1.00;;;21.30;58.80;;;;;;5053422;28;20056;-74
2022/08/10 03:33:46;;;;;;;1.00;0.90;;;;;;;;;;5053170;28;20059;-74
2022/08/10 03:36:13;;;;;;;0.80;0.80;;;20.80;63.60;;;;;;5051995;28;20136;-73
2022/08/10 03:38:42;;;;;;;0.90;0.90;;;;;;;;;;5034495;28;20064;-73
2022/08/10 03:41:11;;;;;;;1.20;0.98;;;21.90;56.80;;;;;;5049734;28;20053;-74
2022/08/10 03:43:39;;;;;;;0.93;0.90;;;21.60;64.30;;;;;;5032322;28;20471;-73
2022/08/10 03:46:06;;;;;;;1.00;0.90;;;20.90;64.00;;;;;;5053418;28;20036;-73
2022/08/10 03:48:33;;;;;;;1.10;1.00;;;21.40;62.00;;;;;;5033923;28;20049;-72
2022/08/10 03:51:00;;;;;;;0.98;0.93;;;21.40;64.30;;;;;;5040617;28;20056;-70
2022/08/10 03:53:27;;;;;;;0.80;0.80;;;;;;;;;;5032730;28;20084;-73
2022/08/10 03:55:54;;;;;;;0.98;0.90;;;21.00;64.00;;;;;;5049548;28;20132;-70
2022/08/10 03:58:20;;;;;;;0.82;0.82;;;21.10;64.10;;;;;;5033247;28;20067;-70
2022/08/10 04:00:49;;;;;;;0.85;0.85;;;21.20;56.30;;;;;;5033473;28;20041;-71
2022/08/10 04:03:16;;;;;;;1.15;1.05;;;20.40;63.50;;;;;;5032809;28;20053;-69
2022/08/10 04:05:44;;;;;;;1.42;1.20;;;;;;;;;;5032595;28;20136;-70
2022/08/10 04:08:10;;;;;;;1.27;1.10;;;21.00;63.70;;;;;;5051170;28;20475;-69
2022/08/10 04:10:37;;;;;;;1.33;1.23;;;21.60;64.20;;;;;;5031779;28;20049;-69
2022/08/10 04:13:04;;;;;;;1.30;1.20;;;21.30;59.60;;;;;;5046254;28;20049;-70
2022/08/10 04:15:30;;;;;;;1.50;1.30;;;21.00;64.20;;;;;;5032106;28;20049;-71
2022/08/10 04:17:58;;;;;;;1.30;1.20;;;20.50;63.70;;;;;;5031751;28;20128;-72
2022/08/10 04:20:29;;;;;;;1.60;1.20;;;21.20;64.10;;;;;;5030648;28;20045;-71
2022/08/10 04:22:56;;;;;;;1.25;1.15;;;20.80;63.80;;;;;;5048712;28;20057;-72
2022/08/10 04:25:23;;;;;;;1.33;1.23;;;;;;;;;;5033351;28;20688;-72
2022/08/10 04:27:50;;;;;;;1.35;1.20;;;21.00;57.80;;;;;;5050620;28;20056;-72
2022/08/10 04:30:17;;;;;;;2.13;1.20;;;21.30;64.30;;;;;;5030966;28;20140;-71
2022/08/10 04:32:44;;;;;;;1.23;1.13;;;;;;;;;;5033049;28;20129;-69
2022/08/10 04:35:12;;;;;;;1.20;1.10;;;20.50;63.90;;;;;;5031958;28;20053;-69
2022/08/10 04:37:39;;;;;;;1.30;1.20;;;20.30;63.80;;;;;;5032855;28;20132;-69
2022/08/10 04:40:06;;;;;;;1.73;1.17;;;21.40;64.40;;;;;;5031277;28;20136;-69
2022/08/10 04:42:34;;;;;;;2.47;1.20;;;;;;;;;;5030295;28;20561;-72
2022/08/10 04:45:07;;;;;;;1.75;1.20;;;;;;;;;;5047495;28;20498;-73
2022/08/10 04:47:34;;;;;;;1.20;1.05;;;;;;;;;;5056535;28;20048;-74
2022/08/10 04:50:01;;;;;;;1.88;1.15;;;;;;;;;;5050368;28;20068;-72
2022/08/10 04:52:29;;;;;;;1.73;1.40;;;21.10;56.40;;;;;;5034372;28;20049;-74
2022/08/10 04:54:55;;;;;;;1.73;1.33;;;20.90;64.20;;;;;;5032893;28;20129;-73
2022/08/10 04:57:22;;;;;;;2.15;1.50;;;21.20;64.20;;;;;;5040102;28;20553;-74
2022/08/10 04:59:49;;;;;;;2.20;1.50;;;;;;;;;;5049422;28;20059;-73
2022/08/10 05:02:16;;;;;;;1.50;1.40;;;20.80;64.30;;;;;;5050861;28;20059;-74
2022/08/10 05:04:43;;;;;;;2.67;1.75;;;20.70;58.50;;;;;;5041694;28;20071;-69
2022/08/10 05:07:11;;;;;;;1.55;1.35;;;20.80;62.60;;;;;;5036921;28;20123;-69
2022/08/10 05:09:39;;;;;;;1.52;1.33;;;21.10;61.90;;;;;;5051119;28;20060;-70
2022/08/10 05:12:06;;;;;;;1.77;1.50;;;21.30;64.40;;;;;;5034108;28;20048;-69
2022/08/10 05:14:34;;;;;;;1.98;1.60;;;;;;;;;;5048765;28;20049;-71
2022/08/10 05:17:00;;;;;;;1.80;1.48;;;20.80;59.60;;;;;;5051819;28;20044;-69
2022/08/10 05:19:27;;;;;;;1.95;1.52;;;21.30;64.60;;;;;;5051049;28;20558;-69
2022/08/10 05:21:54;;;;;;;2.40;1.50;;;21.10;59.30;;;;;;5038533;28;20061;-71
2022/08/10 05:24:21;;;;;;;1.52;1.33;;;;;;;;;;5031178;28;20053;-70
2022/08/10 05:26:49;;;;;;;1.52;1.42;;;21.00;56.60;;;;;;5039491;28;20045;-71
2022/08/10 05:29:16;;;;;;;1.90;1.40;;;;;;;;;;5032109;28;20482;-71
2022/08/10 05:31:42;;;;;;;1.40;1.30;;;20.40;64.10;;;;;;5060242;28;20128;-70
2022/08/10 05:34:09;;;;;;;1.90;1.70;;;21.20;59.80;;;;;;5050097;28;20136;-71
2022/08/10 05:36:36;;;;;;;2.53;1.70;;;21.00;65.10;;;;;;5032461;28;20088;-71
2022/08/10 05:39:03;;;;;;;4.20;1.85;;;21.00;64.80;;;;;;5050679;28;20059;-70
2022/08/10 05:41:30;;;;;;;2.45;1.42;;;;;;;;;;5038175;28;20445;-72
2022/08/10 05:43:58;;;;;;;2.15;1.58;;;20.90;64.40;;;;;;5047217;28;20417;-72
2022/08/10 05:46:25;;;;;;;1.52;1.42;;;21.30;64.80;;;;;;5030785;28;20060;-72
2022/08/10 05:48:51;;;;;;;1.70;1.50;;;20.70;64.60;;;;;;5049542;28;20061;-72
2022/08/10 05:51:18;;;;;;;2.35;1.52;;;;;;;;;;5050148;28;20140;-72
2022/08/10 05:53:46;;;;;;;1.77;1.50;;;;;;;;;;5034690;28;20077;-72
2022/08/10 05:56:13;;;;;;;1.50;1.40;;;;;;;;;;5047371;28;20059;-71
2022/08/10 05:58:39;;;;;;;1.83;1.60;;;20.90;64.50;;;;;;5048388;28;20059;-72
2022/08/10 06:01:13;;;;;;;1.58;1.40;;;21.00;56.80;;;;;;5048702;28;20089;-72
2022/08/10 06:03:43;;;;;;;1.70;1.50;;;20.70;64.40;;;;;;5050637;28;20080;-71
2022/08/10 06:06:10;;;;;;;2.17;1.38;;;;;;;;;;5041469;28;20045;-70
2022/08/10 06:08:37;;;;;;;1.88;1.30;;;;;;;;;;5047367;28;20063;-71
2022/08/10 06:11:05;;;;;;;2.60;1.40;;;21.30;65.20;;;;;;5031485;28;20056;-71
2022/08/10 06:16:17;;;;;;;1.50;1.40;;;21.90;65.20;;;;;;5039492;28;20128;-70
2022/08/10 06:18:44;;;;;;;1.80;1.30;;;21.30;64.80;;;;;;5050214;28;20157;-70
2022/08/10 06:21:12;;;;;;;1.60;1.30;;;;;;;;;;5042532;28;20046;-70
2022/08/10 06:23:39;;;;;;;2.05;1.40;;;;;;;;;;5046666;28;20090;-70
2022/08/10 06:26:06;;;;;;;1.67;1.50;;;20.80;59.30;;;;;;5058718;28;20055;-70
2022/08/10 06:28:33;;;;;;;3.42;1.60;;;21.20;64.40;;;;;;5030592;28;20084;-70
2022/08/10 06:31:00;;;;;;;3.58;1.75;;;21.30;64.30;;;;;;5030190;28;20136;-71
2022/08/10 06:33:30;;;;;;;2.58;1.50;;;21.10;64.60;;;;;;5013565;28;20050;-70
2022/08/10 06:35:57;;;;;;;1.20;1.10;;;21.60;64.20;;;;;;5036489;28;20555;-71
2022/08/10 06:38:24;;;;;;;1.20;1.10;;;22.10;57.40;;;;;;5050117;28;20053;-71
2022/08/10 06:40:51;;;;;;;1.25;1.13;;;22.10;57.10;;;;;;5066232;28;20059;-71
2022/08/10 06:43:19;;;;;;;1.45;1.20;;;22.10;56.40;;;;;;5051291;28;20055;-71
2022/08/10 06:45:48;;;;;;;1.77;1.10;;;22.00;55.50;;;;;;5062263;28;20136;-72
2022/08/10 06:48:18;;;;;;;1.40;1.13;;;21.70;63.30;;;;;;5030167;28;20131;-71
2022/08/10 06:50:48;;;;;;;1.77;1.30;;;22.20;63.20;;;;;;5031132;28;20172;-74
2022/08/10 06:53:17;;;;;;;1.33;1.20;;;22.50;63.20;;;;;;5032017;28;20049;-73
2022/08/10 06:55:46;;;;;;;1.70;1.20;;;22.40;55.00;;;;;;5044477;28;20045;-69
2022/08/10 06:58:13;;;;;;;1.55;1.10;;;22.10;63.00;;;;;;5017805;28;20135;-73
2022/08/10 07:00:41;;;;;;;1.77;1.20;;;22.80;62.90;;;;;;5040793;28;20046;-74
2022/08/10 07:03:08;;;;;;;1.75;1.20;;;22.60;62.90;;;;;;5043596;28;20127;-73
2022/08/10 07:05:37;;;;;;;1.83;1.20;;;22.80;63.20;;;;;;5050116;28;20049;-74
2022/08/10 07:08:05;;;;;;;1.58;1.20;;;22.80;54.30;;;;;;5036669;28;20508;-73
2022/08/10 07:10:31;;;;;;;1.35;1.23;;;22.80;62.30;;;;;;5031286;28;20447;-73
2022/08/10 07:12:59;;;;;;;2.30;1.55;;;23.40;62.40;;;;;;5034492;28;20053;-73
2022/08/10 07:15:26;;;;;;;1.20;1.10;;;22.90;62.10;;;;;;5034814;28;20136;-73
2022/08/10 07:17:53;;;;;;;1.10;1.00;;;23.10;54.00;;;;;;5070506;28;20060;-73
2022/08/10 07:20:20;;;;;;;1.20;1.10;;;23.90;63.00;;;;;;5052633;28;20053;-70
2022/08/10 07:22:47;;;;;;;2.55;1.10;;;23.20;53.80;;;;;;5044746;28;20402;-70
2022/08/10 07:25:17;;;;;;;1.20;1.10;;;23.40;53.80;;;;;;5030790;28;20064;-71
2022/08/10 07:27:44;;;;;;;1.20;1.10;;;22.90;61.50;;;;;;5035893;28;20497;-72
2022/08/10 07:30:12;;;;;;;1.40;1.10;;;;;;;;;;5041161;28;20124;-72
2022/08/10 07:32:39;;;;;;;1.83;1.20;;;23.00;61.50;;;;;;5053016;28;20049;-73
2022/08/10 07:35:06;;;;;;;1.58;1.20;;;23.60;54.80;;;;;;5037945;28;20132;-73
2022/08/10 07:37:35;;;;;;;3.15;1.17;;;23.50;53.70;;;;;;5050986;28;20052;-71
2022/08/10 07:40:02;;;;;;;6.97;1.50;;;;;;;;;;5054071;28;20051;-73
2022/08/10 07:42:30;;;;;;;3.00;1.25;;;23.50;62.40;;;;;;5052325;28;20474;-73
2022/08/10 07:44:57;;;;;;;2.38;1.30;;;23.80;56.00;;;;;;5039270;28;20465;-73
2022/08/10 07:47:27;;;;;;;3.53;1.40;;;23.40;53.60;;;;;;5033117;28;20093;-73
2022/08/10 07:49:54;;;;;;;2.15;1.40;;;;;;;;;;5034032;28;20133;-71
2022/08/10 07:52:21;;;;;;;2.22;1.20;;;23.00;62.00;;;;;;5048962;28;20487;-73
2022/08/10 07:54:49;;;;;;;2.80;1.33;;;23.60;53.70;;;;;;5039307;28;20144;-71
2022/08/10 07:57:18;;;;;;;3.42;1.33;;;23.60;53.70;;;;;;5037803;28;20101;-73
2022/08/10 07:59:48;;;;;;;2.53;1.45;;;23.70;61.80;;;;;;5048622;28;20048;-70
2022/08/10 08:02:18;;;;;;;1.75;1.20;;;23.60;61.50;;;;;;5037829;28;20052;-74
2022/08/10 08:04:45;;;;;;;2.30;1.40;;;23.90;61.80;;;;;;5035477;28;20057;-74
2022/08/10 08:07:12;;;;;;;3.58;1.45;;;23.60;53.60;;;;;;5032551;28;20410;-72
2022/08/10 08:09:39;;;;;;;1.98;1.40;;;;;;;;;;5030788;28;20085;-72
2022/08/10 08:12:07;;;;;;;5.63;1.40;;;23.70;53.60;;;;;;5054282;28;20056;-71
2022/08/10 08:14:34;;;;;;;3.85;1.48;;;23.40;61.30;;;;;;5043300;28;20403;-71
2022/08/10 08:17:02;;;;;;;4.80;1.40;;;23.70;53.70;;;;;;5031883;28;20081;-71
2022/08/10 08:19:29;;;;;;;2.55;1.42;;;23.70;53.60;;;;;;5031185;28;20041;-71
2022/08/10 08:21:55;;;;;;;2.72;1.25;;;23.70;61.40;;;;;;5031941;28;20542;-74
2022/08/10 08:24:22;;;;;;;2.65;1.30;;;23.50;62.00;;;;;;5032168;28;20055;-74
2022/08/10 08:26:49;;;;;;;3.60;1.55;;;24.50;56.00;;;;;;5039626;28;20052;-74
2022/08/10 08:29:16;;;;;;;3.88;1.48;;;23.60;61.30;;;;;;5050561;28;20147;-74
2022/08/10 08:31:43;;;;;;;2.97;1.15;;;23.90;53.70;;;;;;5037021;28;20061;-72
2022/08/10 08:34:11;;;;;;;2.42;1.30;;;23.80;61.30;;;;;;5031757;28;20136;-74
2022/08/10 08:36:39;;;;;;;2.00;1.42;;;23.70;60.90;;;;;;5041518;28;20059;-71
2022/08/10 08:39:06;;;;;;;2.15;1.30;;;24.40;62.20;;;;;;5052632;28;20052;-71
2022/08/10 08:41:53;;;;;;;3.42;1.45;;;23.50;57.60;;;;;;5050917;28;20497;-71
2022/08/10 08:44:23;;;;;;;2.13;1.23;;;23.50;59.20;;;;;;5033306;28;20516;-71
2022/08/10 08:47:05;;;;;;;2.70;1.25;;;24.10;53.80;;;;;;5044210;28;20493;-71
2022/08/10 08:49:55;;;;;;;2.67;1.30;;;24.70;59.60;;;;;;5050961;28;20074;-71
2022/08/10 08:52:31;;;;;;;3.28;1.20;;;23.10;56.50;;;;;;5050556;28;20555;-71
2022/08/10 08:55:03;;;;;;;1.63;1.00;;;23.80;61.30;;;;;;5051774;28;20053;-71
2022/08/10 08:57:36;;;;;;;3.92;1.55;;;23.90;53.60;;;;;;5051331;28;20061;-73
2022/08/10 09:00:06;;;;;;;2.10;1.08;;;24.00;53.70;;;;;;5033400;28;20124;-71
2022/08/10 09:02:40;;;;;;;1.58;1.20;;;24.60;62.30;;;;;;5036225;28;20052;-71
2022/08/10 09:05:19;;;;;;;4.97;1.67;;;24.00;62.10;;;;;;5034416;28;20566;-74
2022/08/10 09:08:10;;;;;;;2.55;1.30;;;25.20;54.40;;;;;;5030682;28;20058;-71
2022/08/10 09:10:41;;;;;;;2.35;1.20;;;24.10;53.70;;;;;;5031124;28;20057;-73
2022/08/10 09:13:10;;;;;;;1.48;1.30;;;24.30;61.40;;;;;;5051216;28;20691;-74
2022/08/10 09:15:39;;;;;;;1.88;1.13;;;23.70;61.70;;;;;;5030917;28;20045;-74
2022/08/10 09:18:09;;;;;;;2.65;1.30;;;23.50;54.20;;;;;;5033222;28;20045;-74
2022/08/10 09:20:40;;;;;;;1.67;1.30;;;23.90;61.30;;;;;;5030855;28;20140;-74
2022/08/10 09:23:11;;;;;;;3.08;1.40;;;24.50;61.40;;;;;;5030423;28;20120;-71
2022/08/10 09:25:40;;;;;;;2.35;1.00;;;24.20;53.70;;;;;;5030946;28;20140;-73
2022/08/10 09:28:08;;;;;;;1.80;1.25;;;24.10;60.40;;;;;;5030643;28;20053;-71
2022/08/10 09:30:38;;;;;;;1.80;1.10;;;24.40;61.40;;;;;;5029460;28;20053;-71
2022/08/10 09:33:08;;;;;;;1.98;1.30;;;24.60;62.00;;;;;;5030435;28;20049;-71
2022/08/10 09:35:44;;;;;;;1.80;1.10;;;24.40;61.50;;;;;;5031011;28;20063;-71
2022/08/10 09:38:13;;;;;;;1.52;1.17;;;24.20;53.60;;;;;;5030818;28;20075;-71
2022/08/10 09:40:44;;;;;;;2.83;1.25;;;24.30;61.20;;;;;;5030469;28;20497;-71
2022/08/10 09:43:14;;;;;;;2.00;1.30;;;23.70;58.40;;;;;;5029256;28;20136;-72
2022/08/10 09:45:45;;;;;;;1.70;1.00;;;24.40;53.70;;;;;;5029594;28;20136;-72
2022/08/10 09:48:15;;;;;;;1.38;1.10;;;24.30;53.70;;;;;;5028854;28;20414;-72
2022/08/10 09:50:51;;;;;;;1.45;1.10;;;24.40;62.60;;;;;;5030804;28;20132;-71
2022/08/10 09:53:21;;;;;;;2.05;1.00;;;23.70;60.80;;;;;;5029586;28;20084;-73
2022/08/10 09:55:52;;;;;;;1.20;1.10;;;23.60;60.70;;;;;;5030036;28;20059;-74
2022/08/10 09:58:30;;;;;;;1.73;1.08;;;24.80;61.50;;;;;;5029686;28;20081;-73
2022/08/10 10:01:02;;;;;;;1.45;1.15;;;24.20;53.80;;;;;;5029649;28;20122;-73
2022/08/10 10:03:31;;;;;;;1.50;1.10;;;25.00;62.50;;;;;;5030897;28;20058;-74
2022/08/10 10:06:03;;;;;;;2.90;1.02;;;24.40;60.00;;;;;;5031628;28;20506;-73
2022/08/10 10:08:32;;;;;;;1.42;1.10;;;24.20;53.90;;;;;;5030902;28;20064;-72
2022/08/10 10:11:04;;;;;;;1.55;1.02;;;24.30;53.90;;;;;;5030259;28;20147;-72
2022/08/10 10:13:42;;;;;;;2.40;1.10;;;24.10;61.20;;;;;;5030215;28;20042;-73
2022/08/10 10:16:18;;;;;;;1.60;1.38;;;24.60;61.60;;;;;;5030175;28;20060;-73
2022/08/10 10:18:47;;;;;;;1.20;0.98;;;24.30;61.50;;;;;;5030408;28;20145;-74
2022/08/10 10:21:20;;;;;;;1.80;1.13;;;24.50;57.40;;;;;;5030326;28;20061;-73
2022/08/10 10:23:53;;;;;;;1.30;1.10;;;24.30;61.20;;;;;;5030194;28;20144;-73
2022/08/10 10:26:21;;;;;;;1.45;1.10;;;23.90;61.00;;;;;;5030690;28;20553;-73
2022/08/10 10:28:56;;;;;;;2.55;1.30;;;24.70;61.60;;;;;;5032820;28;20050;-73
2022/08/10 10:31:26;;;;;;;2.45;1.08;;;24.10;55.00;;;;;;5034555;28;20139;-73
2022/08/10 10:33:58;;;;;;;2.75;1.00;;;24.30;53.90;;;;;;5034151;28;20413;-73
2022/08/10 10:36:26;;;;;;;1.25;1.10;;;24.30;59.40;;;;;;5034364;28;20136;-71
2022/08/10 10:38:54;;;;;;;2.10;0.88;;;;;;;;;;5034115;28;20055;-71
2022/08/10 10:41:29;;;;;;;1.48;1.00;;;23.90;54.50;;;;;;5035194;28;20045;-72
2022/08/10 10:44:03;;;;;;;1.10;1.00;;;24.30;53.90;;;;;;5034193;28;20509;-72
2022/08/10 10:46:49;;;;;;;2.28;1.00;;;24.70;61.80;;;;;;5034416;28;20063;-71
2022/08/10 10:49:21;;;;;;;1.48;1.20;;;24.20;61.20;;;;;;5033996;28;20131;-71
2022/08/10 10:52:00;;;;;;;1.40;1.30;;;24.50;61.90;;;;;;5034681;28;20058;-71
2022/08/10 10:54:32;;;;;;;2.42;1.20;;;24.20;61.10;;;;;;5033759;28;20401;-71
2022/08/10 10:57:03;;;;;;;1.35;1.05;;;24.10;54.20;;;;;;5034176;28;20136;-71
2022/08/10 10:59:34;;;;;;;1.33;1.00;;;24.80;61.40;;;;;;5034067;28;20060;-71
2022/08/10 11:02:07;;;;;;;1.20;1.00;;;24.10;61.10;;;;;;5033831;28;20140;-73
2022/08/10 11:04:36;;;;;;;1.77;1.08;;;24.20;61.10;;;;;;5033642;28;20071;-74
2022/08/10 11:07:11;;;;;;;1.25;1.00;;;24.10;53.80;;;;;;5033902;28;20055;-73
2022/08/10 11:09:40;;;;;;;1.02;0.93;;;24.20;57.50;;;;;;5033933;28;20510;-74
2022/08/10 11:12:11;;;;;;;1.00;0.90;;;24.30;54.00;;;;;;5033276;28;20053;-73
2022/08/10 11:14:39;;;;;;;1.35;1.00;;;24.30;54.00;;;;;;5032082;28;20045;-73
2022/08/10 11:17:09;;;;;;;1.08;0.98;;;24.40;54.10;;;;;;5033152;28;20129;-71
2022/08/10 11:19:40;;;;;;;3.03;1.00;;;24.70;61.20;;;;;;5033254;28;20140;-74
2022/08/10 11:22:12;;;;;;;1.45;1.05;;;24.50;60.80;;;;;;5032966;28;20057;-74
2022/08/10 11:24:43;;;;;;;1.08;1.00;;;24.30;62.00;;;;;;5033327;28;20049;-74
2022/08/10 11:27:15;;;;;;;0.80;0.80;;;24.80;61.60;;;;;;5033634;28;20138;-75
2022/08/10 11:29:51;;;;;;;1.10;1.00;;;24.90;57.40;;;;;;5033193;28;20141;-75
2022/08/10 11:32:22;;;;;;;1.25;1.05;;;24.40;54.70;;;;;;5032969;28;20056;-74
2022/08/10 11:34:52;;;;;;;1.00;0.93;;;23.70;61.60;;;;;;5032744;28;20060;-75
2022/08/10 11:37:25;;;;;;;1.20;0.98;;;24.10;61.40;;;;;;5033331;28;20465;-74
2022/08/10 11:39:58;;;;;;;2.55;1.10;;;24.30;54.10;;;;;;5032181;28;20063;-73
2022/08/10 11:42:31;;;;;;;1.23;0.80;;;24.00;61.40;;;;;;5033315;28;20140;-72
2022/08/10 11:45:01;;;;;;;1.10;1.00;;;25.30;61.80;;;;;;5032598;28;20045;-72
2022/08/10 11:47:34;;;;;;;1.23;1.13;;;25.20;61.80;;;;;;5033367;28;20068;-72
2022/08/10 11:50:03;;;;;;;1.40;1.00;;;24.40;54.10;;;;;;5033053;28;20403;-73
2022/08/10 11:52:36;;;;;;;1.50;1.00;;;23.90;61.70;;;;;;5033095;28;20085;-72
2022/08/10 11:55:09;;;;;;;1.52;1.05;;;24.70;54.70;;;;;;5032361;28;20049;-72
2022/08/10 11:57:36;;;;;;;1.58;1.00;;;24.40;62.00;;;;;;5032572;28;20053;-72
2022/08/10 12:00:03;;;;;;;1.02;0.93;;;24.20;55.50;;;;;;5032815;28;20057;-72
2022/08/10 12:02:32;;;;;;;1.08;0.98;;;24.10;61.30;;;;;;5032644;28;20124;-72
2022/08/10 12:05:00;;;;;;;0.90;0.90;;;24.50;54.20;;;;;;5032135;28;20041;-72
2022/08/10 12:07:27;;;;;;;2.65;1.00;;;23.80;56.20;;;;;;5032193;28;20136;-72
2022/08/10 12:09:55;;;;;;;1.20;0.90;;;24.50;61.20;;;;;;5033492;28;20057;-72
2022/08/10 12:12:23;;;;;;;2.60;1.00;;;24.30;61.90;;;;;;5030131;28;20053;-72
2022/08/10 12:14:53;;;;;;;1.00;0.90;;;24.60;59.70;;;;;;5031763;28;20482;-72
2022/08/10 12:17:23;;;;;;;1.50;1.20;;;24.40;61.50;;;;;;5045968;28;20132;-71
2022/08/10 12:19:54;;;;;;;1.02;0.93;;;24.70;55.60;;;;;;5032336;28;20053;-72
2022/08/10 12:22:22;;;;;;;1.90;1.00;;;24.30;61.50;;;;;;5045905;28;20060;-72
2022/08/10 12:24:50;;;;;;;2.08;0.98;;;;;;;;;;5031793;28;20045;-73
2022/08/10 12:27:20;;;;;;;1.17;1.08;;;24.70;62.10;;;;;;5031858;28;20057;-71
2022/08/10 12:29:50;;;;;;;1.13;0.90;;;24.80;61.40;;;;;;5033442;28;20053;-74
2022/08/10 12:32:19;;;;;;;1.00;0.90;;;23.80;61.20;;;;;;5031999;28;20156;-74
2022/08/10 12:34:49;;;;;;;1.60;1.33;;;24.50;54.20;;;;;;5032041;28;20046;-74
2022/08/10 12:37:20;;;;;;;2.65;1.02;;;25.30;55.80;;;;;;5032283;28;20064;-73
2022/08/10 12:39:51;;;;;;;1.55;0.93;;;24.30;62.00;;;;;;5032453;28;20494;-73
2022/08/10 12:42:25;;;;;;;1.13;0.95;;;24.30;60.00;;;;;;5032446;28;20500;-73
2022/08/10 12:44:56;;;;;;;1.10;1.00;;;24.40;54.20;;;;;;5032057;28;20053;-73
2022/08/10 12:47:29;;;;;;;1.10;1.00;;;21.70;52.60;;;;;;5031452;28;20053;-72
2022/08/10 12:50:00;;;;;;;1.55;1.00;;;24.40;54.20;;;;;;5032459;28;20057;-72
2022/08/10 12:52:29;;;;;;;1.35;0.90;;;24.00;55.70;;;;;;5031685;28;20061;-72
2022/08/10 12:54:57;;;;;;;1.08;0.90;;;24.50;61.70;;;;;;5031533;28;20227;-72
2022/08/10 12:57:25;;;;;;;1.52;1.10;;;24.70;62.00;;;;;;5031855;28;20103;-72
2022/08/10 12:59:52;;;;;;;1.10;1.00;;;23.90;60.70;;;;;;5031870;28;20383;-72
2022/08/10 13:02:21;;;;;;;1.75;1.13;;;24.00;61.50;;;;;;5030854;28;20053;-72
2022/08/10 13:04:49;;;;;;;1.23;1.00;;;25.10;62.20;;;;;;5031736;28;20137;-72
2022/08/10 13:07:22;;;;;;;2.28;1.00;;;24.20;61.50;;;;;;5032613;28;20053;-72
2022/08/10 13:09:49;;;;;;;1.52;1.10;;;24.10;58.50;;;;;;5031686;28;20458;-72
2022/08/10 13:12:16;;;;;;;1.00;0.90;;;24.20;54.60;;;;;;5030628;28;20161;-72
2022/08/10 13:14:54;;;;;;;1.98;1.10;;;24.40;54.40;;;;;;5030859;28;20053;-73
2022/08/10 13:17:23;;;;;;;0.95;0.90;;;24.40;62.30;;;;;;5031763;28;20075;-72